sensor_id;sensor_type;location;lat;lon;timestamp;pressure;altitude;pressure_sealevel;temperature;humidity
69402;BME280;56589;51.992;5.924;2023-01-28T00:00:49;102351.13;;;2.38;70.28
69402;BME280;56589;51.992;5.924;2023-01-28T00:03:15;102352.84;;;2.31;70.19
69402;BME280;56589;51.992;5.924;2023-01-28T00:05:41;102356.31;;;2.29;70.39
69402;BME280;56589;51.992;5.924;2023-01-28T00:08:10;102358.91;;;2.29;69.95
69402;BME280;56589;51.992;5.924;2023-01-28T00:10:36;102351.13;;;2.30;70.40
69402;BME280;56589;51.992;5.924;2023-01-28T00:13:02;102358.91;;;2.32;70.50
69402;BME280;56589;51.992;5.924;2023-01-28T00:15:28;102350.28;;;2.33;70.21
69402;BME280;56589;51.992;5.924;2023-01-28T00:17:54;102355.44;;;2.36;70.53
69402;BME280;56589;51.992;5.924;2023-01-28T00:20:20;102351.09;;;2.39;70.49
69402;BME280;56589;51.992;5.924;2023-01-28T00:22:47;102357.13;;;2.43;70.33
69402;BME280;56589;51.992;5.924;2023-01-28T00:25:16;102351.09;;;2.44;70.53
69402;BME280;56589;51.992;5.924;2023-01-28T00:27:42;102351.94;;;2.41;70.67
69402;BME280;56589;51.992;5.924;2023-01-28T00:30:09;102353.66;;;2.42;70.54
69402;BME280;56589;51.992;5.924;2023-01-28T00:32:36;102343.28;;;2.42;70.43
69402;BME280;56589;51.992;5.924;2023-01-28T00:35:02;102349.34;;;2.46;70.55
69402;BME280;56589;51.992;5.924;2023-01-28T00:37:28;102356.25;;;2.47;70.80
69402;BME280;56589;51.992;5.924;2023-01-28T00:39:54;102361.44;;;2.50;70.54
69402;BME280;56589;51.992;5.924;2023-01-28T00:42:22;102359.66;;;2.52;70.64
69402;BME280;56589;51.992;5.924;2023-01-28T00:44:48;102354.50;;;2.52;71.05
69402;BME280;56589;51.992;5.924;2023-01-28T00:47:14;102364.00;;;2.52;71.00
69402;BME280;56589;51.992;5.924;2023-01-28T00:49:40;102369.16;;;2.53;71.07
69402;BME280;56589;51.992;5.924;2023-01-28T00:52:06;102365.72;;;2.49;71.04
69402;BME280;56589;51.992;5.924;2023-01-28T00:54:32;102366.59;;;2.47;70.63
69402;BME280;56589;51.992;5.924;2023-01-28T00:56:58;102372.66;;;2.43;70.83
69402;BME280;56589;51.992;5.924;2023-01-28T00:59:27;102368.34;;;2.42;71.29
69402;BME280;56589;51.992;5.924;2023-01-28T01:01:52;102363.19;;;2.40;71.25
69402;BME280;56589;51.992;5.924;2023-01-28T01:04:18;102364.06;;;2.38;70.79
69402;BME280;56589;51.992;5.924;2023-01-28T01:06:44;102370.97;;;2.36;70.99
69402;BME280;56589;51.992;5.924;2023-01-28T01:09:10;102370.13;;;2.35;71.22
69402;BME280;56589;51.992;5.924;2023-01-28T01:11:37;102367.53;;;2.35;71.19
69402;BME280;56589;51.992;5.924;2023-01-28T01:14:03;102365.81;;;2.30;71.08
69402;BME280;56589;51.992;5.924;2023-01-28T01:16:32;102367.56;;;2.28;71.06
69402;BME280;56589;51.992;5.924;2023-01-28T01:18:58;102372.75;;;2.23;71.13
69402;BME280;56589;51.992;5.924;2023-01-28T01:21:27;102366.72;;;2.22;71.31
69402;BME280;56589;51.992;5.924;2023-01-28T01:23:54;102362.38;;;2.24;71.02
69402;BME280;56589;51.992;5.924;2023-01-28T01:26:20;102373.59;;;2.25;70.99
69402;BME280;56589;51.992;5.924;2023-01-28T01:28:47;102371.91;;;2.22;71.07
69402;BME280;56589;51.992;5.924;2023-01-28T01:31:14;102379.69;;;2.18;71.21
69402;BME280;56589;51.992;5.924;2023-01-28T01:33:46;102366.75;;;2.16;71.22
69402;BME280;56589;51.992;5.924;2023-01-28T01:36:15;102365.88;;;2.16;71.20
69402;BME280;56589;51.992;5.924;2023-01-28T01:38:41;102366.75;;;2.16;71.17
69402;BME280;56589;51.992;5.924;2023-01-28T01:41:08;102369.31;;;2.18;70.75
69402;BME280;56589;51.992;5.924;2023-01-28T01:43:49;102364.16;;;2.16;70.96
69402;BME280;56589;51.992;5.924;2023-01-28T01:46:18;102363.28;;;2.17;71.17
69402;BME280;56589;51.992;5.924;2023-01-28T01:48:52;102362.41;;;2.17;70.90
69402;BME280;56589;51.992;5.924;2023-01-28T01:51:24;102358.13;;;2.16;70.52
69402;BME280;56589;51.992;5.924;2023-01-28T01:53:56;102369.34;;;2.16;70.37
69402;BME280;56589;51.992;5.924;2023-01-28T01:56:28;102363.28;;;2.16;70.10
69402;BME280;56589;51.992;5.924;2023-01-28T01:59:00;102369.31;;;2.18;70.33
69402;BME280;56589;51.992;5.924;2023-01-28T02:01:29;102374.53;;;2.19;69.79
69402;BME280;56589;51.992;5.924;2023-01-28T02:04:03;102370.19;;;2.21;70.23
69402;BME280;56589;51.992;5.924;2023-01-28T02:06:33;102366.72;;;2.21;69.92
69402;BME280;56589;51.992;5.924;2023-01-28T02:09:05;102375.38;;;2.20;69.57
69402;BME280;56589;51.992;5.924;2023-01-28T02:11:32;102377.13;;;2.19;69.66
69402;BME280;56589;51.992;5.924;2023-01-28T02:14:02;102372.78;;;2.18;69.58
69402;BME280;56589;51.992;5.924;2023-01-28T02:16:30;102370.19;;;2.17;69.43
69402;BME280;56589;51.992;5.924;2023-01-28T02:19:00;102377.09;;;2.16;69.83
69402;BME280;56589;51.992;5.924;2023-01-28T02:25:08;102373.69;;;2.10;69.96
69402;BME280;56589;51.992;5.924;2023-01-28T02:28:14;102383.19;;;2.03;69.86
69402;BME280;56589;51.992;5.924;2023-01-28T02:30:52;102378.88;;;1.94;70.12
69402;BME280;56589;51.992;5.924;2023-01-28T02:33:28;102378.03;;;1.92;70.16
69402;BME280;56589;51.992;5.924;2023-01-28T02:36:04;102391.88;;;1.90;70.53
69402;BME280;56589;51.992;5.924;2023-01-28T02:38:45;102383.22;;;1.91;70.47
69402;BME280;56589;51.992;5.924;2023-01-28T02:41:20;102384.09;;;1.93;70.68
69402;BME280;56589;51.992;5.924;2023-01-28T02:43:52;102384.94;;;1.92;70.31
69402;BME280;56589;51.992;5.924;2023-01-28T02:46:21;102381.50;;;1.90;70.34
69402;BME280;56589;51.992;5.924;2023-01-28T02:48:59;102386.69;;;1.90;70.78
69402;BME280;56589;51.992;5.924;2023-01-28T02:51:37;102389.25;;;1.88;70.68
69402;BME280;56589;51.992;5.924;2023-01-28T02:54:29;102382.38;;;1.86;70.47
69402;BME280;56589;51.992;5.924;2023-01-28T02:57:11;102381.53;;;1.81;70.95
69402;BME280;56589;51.992;5.924;2023-01-28T02:59:56;102378.09;;;1.77;70.91
69402;BME280;56589;51.992;5.924;2023-01-28T03:02:34;102384.13;;;1.76;71.11
69402;BME280;56589;51.992;5.924;2023-01-28T03:05:07;102389.31;;;1.75;70.86
69402;BME280;56589;51.992;5.924;2023-01-28T03:07:41;102385.84;;;1.74;71.28
69402;BME280;56589;51.992;5.924;2023-01-28T03:10:11;102382.38;;;1.75;71.09
69402;BME280;56589;51.992;5.924;2023-01-28T03:12:42;102387.56;;;1.75;71.15
69402;BME280;56589;51.992;5.924;2023-01-28T03:15:16;102393.63;;;1.73;71.19
69402;BME280;56589;51.992;5.924;2023-01-28T03:17:48;102386.72;;;1.72;71.09
69402;BME280;56589;51.992;5.924;2023-01-28T03:20:21;102383.28;;;1.73;71.36
69402;BME280;56589;51.992;5.924;2023-01-28T03:22:53;102381.53;;;1.73;70.90
69402;BME280;56589;51.992;5.924;2023-01-28T03:25:26;102385.00;;;1.74;71.14
69402;BME280;56589;51.992;5.924;2023-01-28T03:27:56;102385.84;;;1.76;71.34
69402;BME280;56589;51.992;5.924;2023-01-28T03:30:36;102381.53;;;1.78;70.94
69402;BME280;56589;51.992;5.924;2023-01-28T03:33:07;102374.63;;;1.78;70.94
69402;BME280;56589;51.992;5.924;2023-01-28T03:35:34;102383.25;;;1.79;70.94
69402;BME280;56589;51.992;5.924;2023-01-28T03:38:03;102381.53;;;1.78;71.31
69402;BME280;56589;51.992;5.924;2023-01-28T03:40:34;102374.63;;;1.80;71.24
69402;BME280;56589;51.992;5.924;2023-01-28T03:42:59;102372.03;;;1.80;70.88
69402;BME280;56589;51.992;5.924;2023-01-28T03:45:25;102370.31;;;1.76;70.67
69402;BME280;56589;51.992;5.924;2023-01-28T03:47:54;102376.34;;;1.75;70.69
69402;BME280;56589;51.992;5.924;2023-01-28T03:50:19;102378.97;;;1.72;70.53
69402;BME280;56589;51.992;5.924;2023-01-28T03:52:45;102387.59;;;1.72;70.62
69402;BME280;56589;51.992;5.924;2023-01-28T03:55:11;102392.78;;;1.72;70.75
69402;BME280;56589;51.992;5.924;2023-01-28T03:57:38;102399.66;;;1.73;70.56
69402;BME280;56589;51.992;5.924;2023-01-28T04:00:06;102392.75;;;1.74;70.47
69402;BME280;56589;51.992;5.924;2023-01-28T04:02:33;102395.34;;;1.75;70.39
69402;BME280;56589;51.992;5.924;2023-01-28T04:05:01;102398.78;;;1.76;70.77
69402;BME280;56589;51.992;5.924;2023-01-28T04:07:27;102395.34;;;1.78;70.86
69402;BME280;56589;51.992;5.924;2023-01-28T04:09:53;102397.06;;;1.81;70.53
69402;BME280;56589;51.992;5.924;2023-01-28T04:12:18;102393.63;;;1.79;70.54
69402;BME280;56589;51.992;5.924;2023-01-28T04:14:44;102400.53;;;1.77;70.49
69402;BME280;56589;51.992;5.924;2023-01-28T04:17:10;102400.50;;;1.75;70.59
69402;BME280;56589;51.992;5.924;2023-01-28T04:19:36;102397.06;;;1.73;70.33
69402;BME280;56589;51.992;5.924;2023-01-28T04:22:09;102391.91;;;1.73;70.72
69402;BME280;56589;51.992;5.924;2023-01-28T04:24:37;102394.50;;;1.72;69.92
69402;BME280;56589;51.992;5.924;2023-01-28T04:27:03;102392.78;;;1.71;70.23
69402;BME280;56589;51.992;5.924;2023-01-28T04:29:28;102386.72;;;1.67;69.65
69402;BME280;56589;51.992;5.924;2023-01-28T04:31:54;102401.41;;;1.65;69.66
69402;BME280;56589;51.992;5.924;2023-01-28T04:34:20;102404.84;;;1.61;69.59
69402;BME280;56589;51.992;5.924;2023-01-28T04:36:46;102404.00;;;1.59;69.64
69402;BME280;56589;51.992;5.924;2023-01-28T04:39:15;102407.47;;;1.59;69.83
69402;BME280;56589;51.992;5.924;2023-01-28T04:41:40;102400.56;;;1.58;69.64
69402;BME280;56589;51.992;5.924;2023-01-28T04:44:06;102403.16;;;1.54;69.53
69402;BME280;56589;51.992;5.924;2023-01-28T04:46:32;102406.56;;;1.51;69.82
69402;BME280;56589;51.992;5.924;2023-01-28T04:48:58;102406.59;;;1.48;69.10
69402;BME280;56589;51.992;5.924;2023-01-28T04:51:24;102413.50;;;1.46;69.14
69402;BME280;56589;51.992;5.924;2023-01-28T04:53:50;102408.31;;;1.48;69.38
69402;BME280;56589;51.992;5.924;2023-01-28T04:56:18;102419.53;;;1.48;69.23
69402;BME280;56589;51.992;5.924;2023-01-28T04:58:44;102422.09;;;1.51;69.28
69402;BME280;56589;51.992;5.924;2023-01-28T05:01:10;102426.44;;;1.52;69.53
69402;BME280;56589;51.992;5.924;2023-01-28T05:03:36;102423.84;;;1.55;69.31
69402;BME280;56589;51.992;5.924;2023-01-28T05:06:02;102425.56;;;1.55;69.59
69402;BME280;56589;51.992;5.924;2023-01-28T05:08:28;102425.56;;;1.50;69.50
69402;BME280;56589;51.992;5.924;2023-01-28T05:10:54;102419.53;;;1.47;69.14
69402;BME280;56589;51.992;5.924;2023-01-28T05:13:22;102418.66;;;1.43;69.41
69402;BME280;56589;51.992;5.924;2023-01-28T05:15:51;102415.22;;;1.36;69.17
69402;BME280;56589;51.992;5.924;2023-01-28T05:18:17;102410.03;;;1.30;68.80
69402;BME280;56589;51.992;5.924;2023-01-28T05:20:43;102414.34;;;1.25;68.51
69402;BME280;56589;51.992;5.924;2023-01-28T05:23:09;102410.03;;;1.20;67.99
69402;BME280;56589;51.992;5.924;2023-01-28T05:25:37;102405.72;;;1.14;68.37
69402;BME280;56589;51.992;5.924;2023-01-28T05:28:04;102399.69;;;1.13;68.13
69402;BME280;56589;51.992;5.924;2023-01-28T05:30:32;102404.84;;;1.13;68.58
69402;BME280;56589;51.992;5.924;2023-01-28T05:32:58;102401.41;;;1.13;68.81
69402;BME280;56589;51.992;5.924;2023-01-28T05:35:24;102404.84;;;1.13;68.41
69402;BME280;56589;51.992;5.924;2023-01-28T05:37:50;102397.09;;;1.12;68.52
69402;BME280;56589;51.992;5.924;2023-01-28T05:40:16;102411.75;;;1.13;68.26
69402;BME280;56589;51.992;5.924;2023-01-28T05:42:42;102406.56;;;1.13;68.55
69402;BME280;56589;51.992;5.924;2023-01-28T05:45:09;102410.88;;;1.12;68.43
69402;BME280;56589;51.992;5.924;2023-01-28T05:47:37;102409.16;;;1.10;68.31
69402;BME280;56589;51.992;5.924;2023-01-28T05:50:04;102406.56;;;1.08;68.28
69402;BME280;56589;51.992;5.924;2023-01-28T05:52:30;102409.16;;;1.08;68.31
69402;BME280;56589;51.992;5.924;2023-01-28T05:54:56;102416.91;;;1.13;68.46
69402;BME280;56589;51.992;5.924;2023-01-28T05:57:22;102408.31;;;1.15;68.00
69402;BME280;56589;51.992;5.924;2023-01-28T05:59:51;102421.25;;;1.19;68.15
69402;BME280;56589;51.992;5.924;2023-01-28T06:02:17;102410.91;;;1.17;68.00
69402;BME280;56589;51.992;5.924;2023-01-28T06:04:45;102409.16;;;1.18;68.16
69402;BME280;56589;51.992;5.924;2023-01-28T06:07:11;102415.19;;;1.20;67.91
69402;BME280;56589;51.992;5.924;2023-01-28T06:09:36;102409.16;;;1.14;67.62
69402;BME280;56589;51.992;5.924;2023-01-28T06:12:03;102412.63;;;1.10;67.70
69402;BME280;56589;51.992;5.924;2023-01-28T06:14:29;102407.44;;;1.09;68.07
69402;BME280;56589;51.992;5.924;2023-01-28T06:16:55;102413.47;;;1.06;67.96
69402;BME280;56589;51.992;5.924;2023-01-28T06:19:21;102415.19;;;1.03;67.83
69402;BME280;56589;51.992;5.924;2023-01-28T06:21:49;102413.44;;;0.96;67.68
69402;BME280;56589;51.992;5.924;2023-01-28T06:24:15;102414.28;;;0.90;67.61
69402;BME280;56589;51.992;5.924;2023-01-28T06:26:41;102416.03;;;0.86;67.63
69402;BME280;56589;51.992;5.924;2023-01-28T06:29:07;102412.56;;;0.86;68.07
69402;BME280;56589;51.992;5.924;2023-01-28T06:31:32;102415.16;;;0.84;67.87
69402;BME280;56589;51.992;5.924;2023-01-28T06:33:58;102409.09;;;0.82;67.22
69402;BME280;56589;51.992;5.924;2023-01-28T06:36:24;102404.81;;;0.81;67.85
69402;BME280;56589;51.992;5.924;2023-01-28T06:38:52;102410.84;;;0.85;67.99
69402;BME280;56589;51.992;5.924;2023-01-28T06:41:18;102416.03;;;0.86;67.91
69402;BME280;56589;51.992;5.924;2023-01-28T06:43:44;102410.00;;;0.87;68.13
69402;BME280;56589;51.992;5.924;2023-01-28T06:46:10;102412.56;;;0.86;67.53
69402;BME280;56589;51.992;5.924;2023-01-28T06:48:35;102414.28;;;0.87;67.90
69402;BME280;56589;51.992;5.924;2023-01-28T06:51:01;102421.19;;;0.88;67.80
69402;BME280;56589;51.992;5.924;2023-01-28T06:53:27;102417.75;;;0.89;67.71
69402;BME280;56589;51.992;5.924;2023-01-28T06:55:56;102426.38;;;0.91;68.20
69402;BME280;56589;51.992;5.924;2023-01-28T06:58:21;102422.06;;;0.93;67.95
69402;BME280;56589;51.992;5.924;2023-01-28T07:00:47;102423.78;;;0.96;68.04
69402;BME280;56589;51.992;5.924;2023-01-28T07:03:13;102416.06;;;0.97;68.39
69402;BME280;56589;51.992;5.924;2023-01-28T07:05:39;102429.84;;;1.01;67.84
69402;BME280;56589;51.992;5.924;2023-01-28T07:08:05;102437.59;;;0.98;67.75
69402;BME280;56589;51.992;5.924;2023-01-28T07:10:31;102436.72;;;0.94;67.83
69402;BME280;56589;51.992;5.924;2023-01-28T07:12:59;102453.97;;;0.94;67.91
69402;BME280;56589;51.992;5.924;2023-01-28T07:15:26;102447.94;;;0.92;68.20
69402;BME280;56589;51.992;5.924;2023-01-28T07:17:52;102449.66;;;0.93;67.82
69402;BME280;56589;51.992;5.924;2023-01-28T07:20:17;102456.53;;;0.89;68.15
69402;BME280;56589;51.992;5.924;2023-01-28T07:22:44;102465.16;;;0.88;67.94
69402;BME280;56589;51.992;5.924;2023-01-28T07:25:12;102459.13;;;0.86;67.85
69402;BME280;56589;51.992;5.924;2023-01-28T07:27:38;102456.53;;;0.86;68.07
69402;BME280;56589;51.992;5.924;2023-01-28T07:30:13;102458.25;;;0.87;68.10
69402;BME280;56589;51.992;5.924;2023-01-28T07:32:40;102464.28;;;0.84;67.98
69402;BME280;56589;51.992;5.924;2023-01-28T07:35:07;102466.84;;;0.78;67.88
69402;BME280;56589;51.992;5.924;2023-01-28T07:37:33;102471.13;;;0.75;67.80
69402;BME280;56589;51.992;5.924;2023-01-28T07:40:00;102468.56;;;0.73;67.93
69402;BME280;56589;51.992;5.924;2023-01-28T07:42:26;102470.28;;;0.74;68.13
69402;BME280;56589;51.992;5.924;2023-01-28T07:44:52;102467.69;;;0.76;68.23
69402;BME280;56589;51.992;5.924;2023-01-28T07:47:20;102458.22;;;0.75;68.09
69402;BME280;56589;51.992;5.924;2023-01-28T07:49:46;102468.56;;;0.76;67.90
69402;BME280;56589;51.992;5.924;2023-01-28T07:52:12;102481.50;;;0.81;67.98
69402;BME280;56589;51.992;5.924;2023-01-28T07:54:38;102486.69;;;0.85;68.29
69402;BME280;56589;51.992;5.924;2023-01-28T07:57:06;102487.56;;;0.84;67.97
69402;BME280;56589;51.992;5.924;2023-01-28T07:59:33;102482.38;;;0.86;67.80
69402;BME280;56589;51.992;5.924;2023-01-28T08:01:59;102491.88;;;0.87;68.33
69402;BME280;56589;51.992;5.924;2023-01-28T08:04:27;102490.16;;;0.91;68.16
69402;BME280;56589;51.992;5.924;2023-01-28T08:06:53;102501.38;;;0.93;67.86
69402;BME280;56589;51.992;5.924;2023-01-28T08:09:19;102494.44;;;0.90;68.00
69402;BME280;56589;51.992;5.924;2023-01-28T08:11:45;102499.66;;;0.92;67.87
69402;BME280;56589;51.992;5.924;2023-01-28T08:14:10;102498.78;;;0.96;68.24
69402;BME280;56589;51.992;5.924;2023-01-28T08:16:36;102503.13;;;0.98;68.37
69402;BME280;56589;51.992;5.924;2023-01-28T08:19:02;102503.13;;;0.98;68.08
69402;BME280;56589;51.992;5.924;2023-01-28T08:21:31;102507.44;;;0.98;68.29
69402;BME280;56589;51.992;5.924;2023-01-28T08:23:56;102504.84;;;0.99;68.23
69402;BME280;56589;51.992;5.924;2023-01-28T08:26:22;102509.16;;;1.05;68.26
69402;BME280;56589;51.992;5.924;2023-01-28T08:28:48;102511.78;;;1.09;68.03
69402;BME280;56589;51.992;5.924;2023-01-28T08:31:14;102508.34;;;1.09;68.15
69402;BME280;56589;51.992;5.924;2023-01-28T08:33:40;102509.16;;;1.05;68.02
69402;BME280;56589;51.992;5.924;2023-01-28T08:36:06;102513.47;;;1.04;68.07
69402;BME280;56589;51.992;5.924;2023-01-28T08:38:35;102518.66;;;1.03;67.73
69402;BME280;56589;51.992;5.924;2023-01-28T08:41:01;102516.03;;;1.01;68.12
69402;BME280;56589;51.992;5.924;2023-01-28T08:43:27;102520.34;;;1.01;67.95
69402;BME280;56589;51.992;5.924;2023-01-28T08:45:53;102523.81;;;1.06;68.25
69402;BME280;56589;51.992;5.924;2023-01-28T08:48:19;102532.47;;;1.11;68.06
69402;BME280;56589;51.992;5.924;2023-01-28T08:50:45;102532.47;;;1.11;67.92
69402;BME280;56589;51.992;5.924;2023-01-28T08:53:12;102516.09;;;1.10;67.94
69402;BME280;56589;51.992;5.924;2023-01-28T08:55:42;102521.25;;;1.09;68.01
69402;BME280;56589;51.992;5.924;2023-01-28T08:58:10;102524.69;;;1.06;67.69
69402;BME280;56589;51.992;5.924;2023-01-28T09:00:38;102541.94;;;1.03;67.72
69402;BME280;56589;51.992;5.924;2023-01-28T09:03:05;102544.53;;;1.03;68.04
69402;BME280;56589;51.992;5.924;2023-01-28T09:05:32;102531.56;;;1.01;67.79
69402;BME280;56589;51.992;5.924;2023-01-28T09:08:00;102530.72;;;1.04;68.26
69402;BME280;56589;51.992;5.924;2023-01-28T09:10:26;102531.56;;;1.07;68.30
69402;BME280;56589;51.992;5.924;2023-01-28T09:12:54;102533.31;;;1.13;68.29
69402;BME280;56589;51.992;5.924;2023-01-28T09:15:20;102529.03;;;1.20;68.15
69402;BME280;56589;51.992;5.924;2023-01-28T09:17:46;102546.31;;;1.22;67.72
69402;BME280;56589;51.992;5.924;2023-01-28T09:20:12;102549.75;;;1.21;68.11
69402;BME280;56589;51.992;5.924;2023-01-28T09:22:40;102554.03;;;1.21;67.97
69402;BME280;56589;51.992;5.924;2023-01-28T09:25:09;102557.53;;;1.21;68.00
69402;BME280;56589;51.992;5.924;2023-01-28T09:27:35;102552.34;;;1.21;67.69
69402;BME280;56589;51.992;5.924;2023-01-28T09:30:04;102560.97;;;1.26;67.94
69402;BME280;56589;51.992;5.924;2023-01-28T09:32:31;102565.31;;;1.27;68.05
69402;BME280;56589;51.992;5.924;2023-01-28T09:34:57;102568.72;;;1.26;67.57
69402;BME280;56589;51.992;5.924;2023-01-28T09:37:23;102565.28;;;1.24;67.62
69402;BME280;56589;51.992;5.924;2023-01-28T09:39:48;102565.28;;;1.24;67.62
69402;BME280;56589;51.992;5.924;2023-01-28T09:42:38;102567.88;;;1.23;67.61
69402;BME280;56589;51.992;5.924;2023-01-28T09:45:23;102573.03;;;1.23;67.67
69402;BME280;56589;51.992;5.924;2023-01-28T09:47:55;102573.06;;;1.29;67.96
69402;BME280;56589;51.992;5.924;2023-01-28T09:50:29;102556.66;;;1.31;68.00
69402;BME280;56589;51.992;5.924;2023-01-28T09:53:03;102568.75;;;1.34;67.67
69402;BME280;56589;51.992;5.924;2023-01-28T09:55:36;102578.22;;;1.32;67.46
69402;BME280;56589;51.992;5.924;2023-01-28T09:58:05;102582.53;;;1.28;67.81
69402;BME280;56589;51.992;5.924;2023-01-28T10:00:43;102579.94;;;1.31;68.18
69402;BME280;56589;51.992;5.924;2023-01-28T10:03:31;102593.78;;;1.42;68.23
69402;BME280;56589;51.992;5.924;2023-01-28T10:06:16;102580.88;;;1.50;68.01
69402;BME280;56589;51.992;5.924;2023-01-28T10:09:11;102590.38;;;1.57;67.62
69402;BME280;56589;51.992;5.924;2023-01-28T10:11:57;102574.84;;;1.62;67.78
69402;BME280;56589;51.992;5.924;2023-01-28T10:14:44;102579.19;;;1.67;67.16
69402;BME280;56589;51.992;5.924;2023-01-28T10:17:26;102580.06;;;1.74;67.53
69402;BME280;56589;51.992;5.924;2023-01-28T10:19:57;102581.81;;;1.89;67.58
69402;BME280;56589;51.992;5.924;2023-01-28T10:22:28;102574.03;;;2.01;67.72
69402;BME280;56589;51.992;5.924;2023-01-28T10:25:02;102577.47;;;2.11;67.38
69402;BME280;56589;51.992;5.924;2023-01-28T10:27:34;102574.03;;;2.19;67.21
69402;BME280;56589;51.992;5.924;2023-01-28T10:30:15;102584.41;;;2.32;67.27
69402;BME280;56589;51.992;5.924;2023-01-28T10:32:50;102582.66;;;2.40;66.83
69402;BME280;56589;51.992;5.924;2023-01-28T10:35:17;102581.78;;;2.47;67.00
69402;BME280;56589;51.992;5.924;2023-01-28T10:37:44;102578.31;;;2.48;66.70
69402;BME280;56589;51.992;5.924;2023-01-28T10:40:14;102572.25;;;2.47;66.17
69402;BME280;56589;51.992;5.924;2023-01-28T10:42:41;102571.41;;;2.47;66.15
69402;BME280;56589;51.992;5.924;2023-01-28T10:45:14;102570.56;;;2.45;66.40
69402;BME280;56589;51.992;5.924;2023-01-28T10:47:49;102571.41;;;2.48;66.36
69402;BME280;56589;51.992;5.924;2023-01-28T10:50:22;102566.22;;;2.47;65.91
69402;BME280;56589;51.992;5.924;2023-01-28T10:52:54;102556.72;;;2.43;66.09
69402;BME280;56589;51.992;5.924;2023-01-28T10:55:21;102558.44;;;2.42;65.98
69402;BME280;56589;51.992;5.924;2023-01-28T10:57:51;102547.22;;;2.42;65.76
69402;BME280;56589;51.992;5.924;2023-01-28T11:00:25;102553.28;;;2.45;66.17
69402;BME280;56589;51.992;5.924;2023-01-28T11:02:55;102533.38;;;2.50;65.99
69402;BME280;56589;51.992;5.924;2023-01-28T11:05:24;102536.81;;;2.56;65.83
69402;BME280;56589;51.992;5.924;2023-01-28T11:08:02;102530.75;;;2.61;65.86
69402;BME280;56589;51.992;5.924;2023-01-28T11:10:30;102530.75;;;2.69;65.92
69402;BME280;56589;51.992;5.924;2023-01-28T11:12:59;102534.16;;;2.74;65.53
69402;BME280;56589;51.992;5.924;2023-01-28T11:15:26;102528.16;;;2.69;65.22
69402;BME280;56589;51.992;5.924;2023-01-28T11:18:00;102523.78;;;2.72;65.66
69402;BME280;56589;51.992;5.924;2023-01-28T11:20:32;102523.78;;;2.82;65.83
69402;BME280;56589;51.992;5.924;2023-01-28T11:23:01;102518.59;;;2.82;64.83
69402;BME280;56589;51.992;5.924;2023-01-28T11:25:29;102499.56;;;2.87;65.29
69402;BME280;56589;51.992;5.924;2023-01-28T11:27:59;102486.56;;;2.84;65.05
69402;BME280;56589;51.992;5.924;2023-01-28T11:30:29;102475.38;;;2.81;65.17
69402;BME280;56589;51.992;5.924;2023-01-28T11:33:04;102464.13;;;2.78;64.68
69402;BME280;56589;51.992;5.924;2023-01-28T11:35:39;102449.44;;;2.77;64.82
69402;BME280;56589;51.992;5.924;2023-01-28T11:38:16;102441.66;;;2.77;64.63
69402;BME280;56589;51.992;5.924;2023-01-28T11:40:49;102443.41;;;2.75;64.26
69402;BME280;56589;51.992;5.924;2023-01-28T11:43:15;102450.31;;;2.76;65.34
69402;BME280;56589;51.992;5.924;2023-01-28T11:45:48;102431.25;;;2.87;65.01
69402;BME280;56589;51.992;5.924;2023-01-28T11:48:35;102425.94;;;3.02;65.55
69402;BME280;56589;51.992;5.924;2023-01-28T11:51:25;102435.38;;;3.18;65.34
69402;BME280;56589;51.992;5.924;2023-01-28T11:54:20;102443.97;;;3.22;64.37
69402;BME280;56589;51.992;5.924;2023-01-28T11:57:10;102443.16;;;3.15;64.61
69402;BME280;56589;51.992;5.924;2023-01-28T12:03:20;102456.16;;;3.12;64.31
69402;BME280;56589;51.992;5.924;2023-01-28T12:06:15;102452.69;;;3.10;64.20
69402;BME280;56589;51.992;5.924;2023-01-28T12:09:02;102452.78;;;2.99;64.76
69402;BME280;56589;51.992;5.924;2023-01-28T12:11:49;102457.00;;;3.11;64.94
69402;BME280;56589;51.992;5.924;2023-01-28T12:14:35;102464.78;;;3.19;64.75
69402;BME280;56589;51.992;5.924;2023-01-28T12:17:22;102467.25;;;3.34;64.92
69402;BME280;56589;51.992;5.924;2023-01-28T12:20:07;102468.03;;;3.47;64.84
69402;BME280;56589;51.992;5.924;2023-01-28T12:23:02;102471.41;;;3.61;64.47
69402;BME280;56589;51.992;5.924;2023-01-28T12:25:42;102462.66;;;3.70;64.08
69402;BME280;56589;51.992;5.924;2023-01-28T12:28:31;102459.22;;;3.68;63.79
69402;BME280;56589;51.992;5.924;2023-01-28T12:31:17;102473.09;;;3.67;63.68
69402;BME280;56589;51.992;5.924;2023-01-28T12:34:22;102462.69;;;3.65;64.14
69402;BME280;56589;51.992;5.924;2023-01-28T12:37:11;102442.72;;;3.72;63.66
69402;BME280;56589;51.992;5.924;2023-01-28T12:39:55;102471.25;;;3.79;63.83
69402;BME280;56589;51.992;5.924;2023-01-28T12:42:37;102459.94;;;3.83;63.89
69402;BME280;56589;51.992;5.924;2023-01-28T12:45:14;102465.19;;;3.79;63.12
69402;BME280;56589;51.992;5.924;2023-01-28T12:47:50;102468.69;;;3.73;63.50
69402;BME280;56589;51.992;5.924;2023-01-28T12:50:26;102475.56;;;3.77;63.81
69402;BME280;56589;51.992;5.924;2023-01-28T12:53:00;102469.47;;;3.83;63.35
69402;BME280;56589;51.992;5.924;2023-01-28T12:55:40;102469.50;;;3.80;63.25
69402;BME280;56589;51.992;5.924;2023-01-28T12:58:14;102464.31;;;3.77;63.36
69402;BME280;56589;51.992;5.924;2023-01-28T13:00:48;102463.44;;;3.78;63.88
69402;BME280;56589;51.992;5.924;2023-01-28T13:03:19;102463.38;;;3.87;64.31
69402;BME280;56589;51.992;5.924;2023-01-28T13:05:58;102450.34;;;3.89;63.20
69402;BME280;56589;51.992;5.924;2023-01-28T13:08:28;102433.94;;;3.87;63.49
69402;BME280;56589;51.992;5.924;2023-01-28T13:10:59;102445.13;;;3.90;63.58
69402;BME280;56589;51.992;5.924;2023-01-28T13:13:29;102445.94;;;3.97;63.95
69402;BME280;56589;51.992;5.924;2023-01-28T13:15:58;102450.16;;;4.10;64.24
69402;BME280;56589;51.992;5.924;2023-01-28T13:18:31;102440.47;;;4.21;63.89
69402;BME280;56589;51.992;5.924;2023-01-28T13:21:00;102432.69;;;4.23;63.12
69402;BME280;56589;51.992;5.924;2023-01-28T13:23:36;102419.72;;;4.18;63.46